createdAt,value
2018-06-23T00:01:34.202Z,4.80
2018-06-23T00:04:08.717Z,5.40
2018-06-23T00:06:45.625Z,5.67
2018-06-23T00:09:20.737Z,4.93
2018-06-23T00:11:55.185Z,4.07
2018-06-23T00:14:29.770Z,4.00
2018-06-23T00:17:04.235Z,3.80
2018-06-23T00:19:39.695Z,4.03
2018-06-23T00:22:14.237Z,4.00
2018-06-23T00:24:48.844Z,4.33
2018-06-23T00:27:23.364Z,3.87
2018-06-23T00:30:04.031Z,4.47
2018-06-23T00:32:38.642Z,4.40
2018-06-23T00:35:13.141Z,3.97
2018-06-23T00:37:47.959Z,3.93
2018-06-23T00:40:22.879Z,6.43
2018-06-23T00:42:57.396Z,4.47
2018-06-23T00:45:31.960Z,4.30
2018-06-23T00:48:06.520Z,3.87
2018-06-23T00:50:41.041Z,4.33
2018-06-23T00:53:15.776Z,4.40
2018-06-23T00:55:50.295Z,4.70
2018-06-23T00:58:24.776Z,5.07
2018-06-23T01:00:59.644Z,4.13
2018-06-23T01:03:34.296Z,4.80
2018-06-23T01:06:08.828Z,4.73
2018-06-23T01:08:43.368Z,4.40
2018-06-23T01:11:18.030Z,4.40
2018-06-23T01:13:53.725Z,4.17
2018-06-23T01:16:28.332Z,4.70
2018-06-23T01:22:14.616Z,4.17
2018-06-23T01:24:56.628Z,4.43
2018-06-23T01:30:31.035Z,5.10
2018-06-23T01:33:06.067Z,4.53
2018-06-23T01:35:40.756Z,4.87
2018-06-23T01:38:25.065Z,4.87
2018-06-23T01:41:00.110Z,5.43
2018-06-23T01:43:34.750Z,4.87
2018-06-23T01:46:10.104Z,5.33
2018-06-23T01:48:48.700Z,5.17
2018-06-23T01:51:23.228Z,5.70
2018-06-23T01:53:57.768Z,5.13
2018-06-23T01:56:32.205Z,5.67
2018-06-23T01:59:06.695Z,5.40
2018-06-23T02:01:41.280Z,6.77
2018-06-23T02:04:15.808Z,6.53
2018-06-23T02:06:50.289Z,7.43
2018-06-23T02:09:24.943Z,6.00
2018-06-23T02:11:59.605Z,7.07
2018-06-23T02:14:39.308Z,6.57
2018-06-23T02:17:19.487Z,7.43
2018-06-23T02:19:59.328Z,5.97
2018-06-23T02:22:39.198Z,6.13
2018-06-23T02:25:19.123Z,5.30
2018-06-23T02:27:59.368Z,5.93
2018-06-23T02:30:40.061Z,6.17
2018-06-23T02:33:20.084Z,5.30
2018-06-23T02:35:54.689Z,6.57
2018-06-23T02:38:29.217Z,5.83
2018-06-23T02:41:03.738Z,6.17
2018-06-23T02:43:38.332Z,6.13
2018-06-23T02:46:13.026Z,7.07
2018-06-23T02:48:47.557Z,6.17
2018-06-23T02:51:22.349Z,7.47
2018-06-23T02:53:56.808Z,7.63
2018-06-23T02:56:31.525Z,9.10
2018-06-23T02:59:06.537Z,9.23
2018-06-23T03:01:41.758Z,9.80
2018-06-23T03:04:16.567Z,8.67
2018-06-23T03:06:51.768Z,10.13
2018-06-23T03:09:27.680Z,9.80
2018-06-23T03:12:02.713Z,11.07
2018-06-23T03:14:37.386Z,10.50
2018-06-23T03:17:17.735Z,9.27
2018-06-23T03:19:52.417Z,10.63
2018-06-23T03:22:27.052Z,9.27
2018-06-23T03:25:01.691Z,10.07
2018-06-23T03:27:36.273Z,7.93
2018-06-23T03:30:10.843Z,7.87
2018-06-23T03:32:45.428Z,8.37
2018-06-23T03:35:20.152Z,7.23
2018-06-23T03:37:54.917Z,7.43
2018-06-23T03:40:29.543Z,7.13
2018-06-23T03:43:04.442Z,5.97
2018-06-23T03:45:39.143Z,6.00
2018-06-23T03:48:13.783Z,6.97
2018-06-23T03:50:48.445Z,6.37
2018-06-23T03:53:23.029Z,5.90
2018-06-23T03:55:57.644Z,6.00
2018-06-23T03:58:32.220Z,5.93
2018-06-23T04:01:08.697Z,5.43
2018-06-23T04:03:43.304Z,6.13
2018-06-23T04:06:18.029Z,4.90
2018-06-23T04:08:52.615Z,5.87
2018-06-23T04:11:27.260Z,4.90
2018-06-23T04:14:01.995Z,5.00
2018-06-23T04:16:36.517Z,5.17
2018-06-23T04:19:11.192Z,5.27
2018-06-23T04:21:45.756Z,5.70
2018-06-23T04:24:20.240Z,5.50
2018-06-23T04:26:54.677Z,4.83
2018-06-23T04:29:29.080Z,5.17
2018-06-23T04:32:03.574Z,5.30
2018-06-23T04:34:38.064Z,5.50
2018-06-23T04:37:12.492Z,5.93
2018-06-23T04:39:46.936Z,5.23
2018-06-23T04:42:21.429Z,5.30
2018-06-23T04:44:55.904Z,4.43
2018-06-23T04:47:30.446Z,4.77
2018-06-23T04:50:04.995Z,4.97
2018-06-23T04:52:39.461Z,4.87
2018-06-23T04:55:14.040Z,5.40
2018-06-23T04:57:48.509Z,5.43
2018-06-23T05:00:25.508Z,5.77
2018-06-23T05:02:59.994Z,4.83
2018-06-23T05:05:34.533Z,6.10
2018-06-23T05:08:09.133Z,6.27
2018-06-23T05:10:43.640Z,5.13
2018-06-23T05:13:18.136Z,5.13
2018-06-23T05:15:52.509Z,5.47
2018-06-23T05:18:27.282Z,6.50
2018-06-23T05:21:01.982Z,6.00
2018-06-23T05:23:36.661Z,6.10
2018-06-23T05:26:11.164Z,6.77
2018-06-23T05:28:45.577Z,7.43
2018-06-23T05:31:20.207Z,6.67
2018-06-23T05:33:55.091Z,6.23
2018-06-23T05:36:29.763Z,6.70
2018-06-23T05:39:06.511Z,6.23
2018-06-23T05:41:41.073Z,5.60
2018-06-23T05:44:15.868Z,5.47
2018-06-23T05:46:50.276Z,5.80
2018-06-23T05:49:24.768Z,6.47
2018-06-23T05:51:59.468Z,5.60
2018-06-23T05:54:34.052Z,6.67
2018-06-23T05:57:08.670Z,6.07
2018-06-23T05:59:43.247Z,5.93
2018-06-23T06:02:17.759Z,6.87
2018-06-23T06:04:52.480Z,5.70
2018-06-23T06:07:26.832Z,6.33
2018-06-23T06:10:01.621Z,5.47
2018-06-23T06:12:36.104Z,6.00
2018-06-23T06:15:10.502Z,7.07
2018-06-23T06:17:44.883Z,6.00
2018-06-23T06:20:19.509Z,5.07
2018-06-23T06:22:53.937Z,6.73
2018-06-23T06:25:28.485Z,6.37
2018-06-23T06:28:03.098Z,6.20
2018-06-23T06:30:37.711Z,5.53
2018-06-23T06:33:12.354Z,6.63
2018-06-23T06:35:46.976Z,5.50
2018-06-23T06:38:21.181Z,6.30
2018-06-23T06:40:55.727Z,6.93
2018-06-23T06:43:30.390Z,6.67
2018-06-23T06:46:06.046Z,7.57
2018-06-23T06:48:40.565Z,5.90
2018-06-23T06:51:15.035Z,7.20
2018-06-23T06:53:49.692Z,6.50
2018-06-23T06:56:24.767Z,7.17
2018-06-23T06:58:59.343Z,6.43
2018-06-23T07:01:34.123Z,6.80
2018-06-23T07:04:08.740Z,7.90
2018-06-23T07:06:43.248Z,7.00
2018-06-23T07:09:18.485Z,8.30
2018-06-23T07:11:53.061Z,7.37
2018-06-23T07:14:27.647Z,8.37
2018-06-23T07:17:02.347Z,7.67
2018-06-23T07:19:37.053Z,7.90
2018-06-23T07:22:11.415Z,8.47
2018-06-23T07:24:45.897Z,8.17
2018-06-23T07:27:20.871Z,8.53
2018-06-23T07:29:55.797Z,8.33
2018-06-23T07:32:30.323Z,8.10
2018-06-23T07:35:04.728Z,8.80
2018-06-23T07:37:39.103Z,8.03
2018-06-23T07:40:13.882Z,9.83
2018-06-23T07:42:48.697Z,8.40
2018-06-23T07:45:26.681Z,8.23
2018-06-23T07:48:01.312Z,8.07
2018-06-23T07:50:35.908Z,9.10
2018-06-23T07:53:12.322Z,8.43
2018-06-23T07:55:48.061Z,7.73
2018-06-23T07:58:22.911Z,7.63
2018-06-23T08:00:57.524Z,7.73
2018-06-23T08:03:35.307Z,8.33
2018-06-23T08:06:09.899Z,9.07
2018-06-23T08:08:44.565Z,10.30
2018-06-23T08:11:19.177Z,11.03
2018-06-23T08:13:53.743Z,10.63
2018-06-23T08:16:29.216Z,10.90
2018-06-23T08:19:04.336Z,11.00
2018-06-23T08:21:39.217Z,9.47
2018-06-23T08:24:14.113Z,12.50
2018-06-23T08:26:50.706Z,11.90
2018-06-23T08:29:25.836Z,12.10
2018-06-23T08:32:00.473Z,10.67
2018-06-23T08:34:35.252Z,10.37
2018-06-23T08:37:10.136Z,9.10
2018-06-23T08:39:44.709Z,9.10
2018-06-23T08:42:20.315Z,9.30
2018-06-23T08:44:54.876Z,8.77
2018-06-23T08:47:30.012Z,8.03
2018-06-23T08:50:05.313Z,8.37
2018-06-23T08:52:39.948Z,10.53
2018-06-23T08:55:14.549Z,9.13
2018-06-23T08:57:49.053Z,9.87
2018-06-23T09:00:24.515Z,9.17
2018-06-23T09:02:59.253Z,9.47
2018-06-23T09:05:33.904Z,10.00
2018-06-23T09:08:08.795Z,9.23
2018-06-23T09:10:43.770Z,11.63
2018-06-23T09:13:19.091Z,11.03
2018-06-23T09:15:53.911Z,13.43
2018-06-23T09:18:28.595Z,11.20
2018-06-23T09:21:03.192Z,11.67
2018-06-23T09:23:38.016Z,8.77
2018-06-23T09:26:12.659Z,6.83
2018-06-23T09:28:47.343Z,5.37
2018-06-23T09:31:21.873Z,4.97
2018-06-23T09:33:56.505Z,4.83
2018-06-23T09:36:31.380Z,8.23
2018-06-23T09:39:08.261Z,9.90
2018-06-23T09:41:42.860Z,9.10
2018-06-23T09:44:17.621Z,10.30
2018-06-23T09:46:52.704Z,8.80
2018-06-23T09:49:27.189Z,7.93
2018-06-23T09:52:01.822Z,8.90
2018-06-23T09:54:36.615Z,9.27
2018-06-23T09:57:11.288Z,9.43
2018-06-23T09:59:45.852Z,9.10
2018-06-23T10:02:20.563Z,8.00
2018-06-23T10:04:55.089Z,7.77
2018-06-23T10:07:29.636Z,7.10
2018-06-23T10:10:04.154Z,7.30
2018-06-23T10:12:38.853Z,5.00
2018-06-23T10:15:13.559Z,4.73
2018-06-23T10:17:48.192Z,4.80
2018-06-23T10:20:22.734Z,4.50
2018-06-23T10:22:57.406Z,4.30
2018-06-23T10:25:32.120Z,5.33
2018-06-23T10:28:06.644Z,4.77
2018-06-23T10:30:41.060Z,4.33
2018-06-23T10:33:15.509Z,4.37
2018-06-23T10:35:50.195Z,5.40
2018-06-23T10:38:24.929Z,5.50
2018-06-23T10:40:59.572Z,6.27
2018-06-23T10:43:34.043Z,7.30
2018-06-23T10:46:08.564Z,8.47
2018-06-23T10:48:43.201Z,6.30
2018-06-23T10:51:17.834Z,5.53
2018-06-23T10:53:53.304Z,6.37
2018-06-23T10:56:27.800Z,5.77
2018-06-23T10:59:02.514Z,6.30
2018-06-23T11:01:37.448Z,6.67
2018-06-23T11:04:11.980Z,6.27
2018-06-23T11:06:46.864Z,6.40
2018-06-23T11:09:21.982Z,5.83
2018-06-23T11:11:56.589Z,5.50
2018-06-23T11:14:31.097Z,6.47
2018-06-23T11:17:05.697Z,6.97
2018-06-23T11:19:40.384Z,6.40
2018-06-23T11:22:15.255Z,5.47
2018-06-23T11:24:50.000Z,5.10
2018-06-23T11:27:24.476Z,5.90
2018-06-23T11:29:59.113Z,5.47
2018-06-23T11:32:33.693Z,5.40
2018-06-23T11:35:08.305Z,5.20
2018-06-23T11:37:42.993Z,4.90
2018-06-23T11:40:17.533Z,4.72
2018-06-23T11:42:52.090Z,4.27
2018-06-23T11:45:26.626Z,3.43
2018-06-23T11:48:01.112Z,3.33
2018-06-23T11:50:35.616Z,3.17
2018-06-23T11:53:11.301Z,2.43
2018-06-23T11:55:46.358Z,3.30
2018-06-23T11:58:21.472Z,3.47
2018-06-23T12:00:56.165Z,3.43
2018-06-23T12:03:30.938Z,3.23
2018-06-23T12:06:05.596Z,3.67
2018-06-23T12:08:40.129Z,3.40
2018-06-23T12:11:14.574Z,3.67
2018-06-23T12:13:49.165Z,4.03
2018-06-23T12:16:24.183Z,3.60
2018-06-23T12:18:59.417Z,3.40
2018-06-23T12:21:34.028Z,3.53
2018-06-23T12:24:08.887Z,3.90
2018-06-23T12:26:43.540Z,3.10
2018-06-23T12:29:18.174Z,3.30
2018-06-23T12:31:52.733Z,3.00
2018-06-23T12:34:27.455Z,2.90
2018-06-23T12:37:01.953Z,2.20
2018-06-23T12:39:36.408Z,2.50
2018-06-23T12:42:10.900Z,2.20
2018-06-23T12:44:45.621Z,2.43
2018-06-23T12:47:20.296Z,2.63
2018-06-23T12:49:54.828Z,2.80
2018-06-23T12:52:29.167Z,2.57
2018-06-23T12:55:03.669Z,3.13
2018-06-23T12:57:38.272Z,4.10
2018-06-23T13:00:12.836Z,3.67
2018-06-23T13:02:47.264Z,4.03
2018-06-23T13:05:21.734Z,4.13
2018-06-23T13:07:56.244Z,4.27
2018-06-23T13:10:30.869Z,3.53
2018-06-23T13:13:05.720Z,3.90
2018-06-23T13:15:40.107Z,3.93
2018-06-23T13:18:14.626Z,3.53
2018-06-23T13:20:49.317Z,4.43
2018-06-23T13:23:23.934Z,3.60
2018-06-23T13:25:58.423Z,4.50
2018-06-23T13:28:32.994Z,4.30
2018-06-23T13:31:07.733Z,4.17
2018-06-23T13:33:42.300Z,3.97
2018-06-23T13:36:16.928Z,4.47
2018-06-23T13:38:51.492Z,3.90
2018-06-23T13:41:25.969Z,4.30
2018-06-23T13:44:00.602Z,4.53
2018-06-23T13:46:35.173Z,4.07
2018-06-23T13:49:09.752Z,4.03
2018-06-23T13:51:44.657Z,4.10
2018-06-23T13:54:23.030Z,4.53
2018-06-23T13:56:58.124Z,4.10
2018-06-23T13:59:32.940Z,4.37
2018-06-23T14:02:07.604Z,4.97
2018-06-23T14:04:42.073Z,4.70
2018-06-23T14:07:16.613Z,4.20
2018-06-23T14:09:52.270Z,4.47
2018-06-23T14:12:27.091Z,5.07
2018-06-23T14:15:01.609Z,5.47
2018-06-23T14:17:36.101Z,4.40
2018-06-23T14:20:10.689Z,4.73
2018-06-23T14:22:45.128Z,4.63
2018-06-23T14:25:19.478Z,4.30
2018-06-23T14:27:54.049Z,5.20
2018-06-23T14:30:28.847Z,5.27
2018-06-23T14:33:03.500Z,5.20
2018-06-23T14:35:37.964Z,4.87
2018-06-23T14:38:12.412Z,5.27
2018-06-23T14:40:47.529Z,5.03
2018-06-23T14:43:22.117Z,4.80
2018-06-23T14:45:56.653Z,4.47
2018-06-23T14:48:31.221Z,4.47
2018-06-23T14:51:05.811Z,4.80
2018-06-23T14:53:40.428Z,4.20
2018-06-23T14:56:15.062Z,5.27
2018-06-23T14:58:49.805Z,4.47
2018-06-23T15:01:24.377Z,5.20
2018-06-23T15:03:58.831Z,4.97
2018-06-23T15:06:33.217Z,5.00
2018-06-23T15:09:19.080Z,4.07
2018-06-23T15:12:04.791Z,4.07
2018-06-23T15:14:39.272Z,4.30
2018-06-23T15:17:13.848Z,3.57
2018-06-23T15:19:48.257Z,3.30
2018-06-23T15:22:22.705Z,3.30
2018-06-23T15:24:57.253Z,3.27
2018-06-23T15:27:31.863Z,3.63
2018-06-23T15:30:06.621Z,3.53
2018-06-23T15:32:41.174Z,4.13
2018-06-23T15:35:15.925Z,3.57
2018-06-23T15:37:50.861Z,4.63
2018-06-23T15:40:25.350Z,4.23
2018-06-23T15:42:59.822Z,4.17
2018-06-23T15:45:34.513Z,3.37
2018-06-23T15:48:08.937Z,3.67
2018-06-23T15:50:44.116Z,3.70
2018-06-23T15:53:18.777Z,3.60
2018-06-23T15:55:53.556Z,3.80
2018-06-23T15:58:28.100Z,3.23
2018-06-23T16:01:02.617Z,3.60
2018-06-23T16:03:37.222Z,3.90
2018-06-23T16:06:11.989Z,5.57
2018-06-23T16:08:46.460Z,4.40
2018-06-23T16:11:21.112Z,5.57
2018-06-23T16:13:56.058Z,14.50
2018-06-23T16:16:31.936Z,10.70
2018-06-23T16:19:07.690Z,19.63
2018-06-23T16:21:42.261Z,4.60
2018-06-23T16:24:16.816Z,7.33
2018-06-23T16:29:26.152Z,3.33
2018-06-23T16:32:00.665Z,3.80
2018-06-23T16:34:35.140Z,3.47
2018-06-23T16:37:09.472Z,3.50
2018-06-23T16:39:44.025Z,3.80
2018-06-23T16:42:18.665Z,3.47
2018-06-23T16:44:53.268Z,3.50
2018-06-23T16:47:27.991Z,3.40
2018-06-23T16:50:02.806Z,2.97
2018-06-23T16:52:37.487Z,2.67
2018-06-23T16:55:11.968Z,2.77
2018-06-23T16:57:46.433Z,2.73
2018-06-23T17:00:21.109Z,2.73
2018-06-23T17:02:55.626Z,3.10
2018-06-23T17:05:30.292Z,2.90
2018-06-23T17:08:04.916Z,3.33
2018-06-23T17:10:39.747Z,3.63
2018-06-23T17:13:14.942Z,3.60
2018-06-23T17:15:49.524Z,3.27
2018-06-23T17:18:26.112Z,3.60
2018-06-23T17:21:01.089Z,3.37
2018-06-23T17:23:35.729Z,2.30
2018-06-23T17:26:10.252Z,2.90
2018-06-23T17:28:44.900Z,2.93
2018-06-23T17:31:19.567Z,3.47
2018-06-23T17:33:55.012Z,3.27
2018-06-23T17:36:29.534Z,3.00
2018-06-23T17:39:04.921Z,3.50
2018-06-23T17:41:39.628Z,3.20
2018-06-23T17:44:14.321Z,3.03
2018-06-23T17:46:48.879Z,2.63
2018-06-23T17:49:23.537Z,2.63
2018-06-23T17:51:58.072Z,2.60
2018-06-23T17:54:32.638Z,2.80
2018-06-23T17:57:07.337Z,3.13
2018-06-23T17:59:41.900Z,3.63
2018-06-23T18:02:16.632Z,3.50
2018-06-23T18:04:51.348Z,3.17
2018-06-23T18:07:25.970Z,3.20
2018-06-23T18:10:00.633Z,3.50
2018-06-23T18:12:35.365Z,3.40
2018-06-23T18:15:10.073Z,3.33
2018-06-23T18:17:44.758Z,3.27
2018-06-23T18:20:19.393Z,3.60
2018-06-23T18:22:54.011Z,3.27
2018-06-23T18:25:28.702Z,3.40
2018-06-23T18:28:03.253Z,3.13
2018-06-23T18:30:37.827Z,4.13
2018-06-23T18:33:12.516Z,3.80
2018-06-23T18:35:47.071Z,3.80
2018-06-23T18:38:21.610Z,4.10
2018-06-23T18:40:56.177Z,3.77
2018-06-23T18:43:30.713Z,4.10
2018-06-23T18:46:05.410Z,3.90
2018-06-23T18:48:39.967Z,4.37
2018-06-23T18:51:14.649Z,3.43
2018-06-23T18:53:51.026Z,4.07
2018-06-23T18:56:25.905Z,3.67
2018-06-23T18:59:00.699Z,3.73
2018-06-23T19:01:35.419Z,4.33
2018-06-23T19:04:10.025Z,4.23
2018-06-23T19:06:44.671Z,4.00
2018-06-23T19:09:19.556Z,3.93
2018-06-23T19:11:54.124Z,4.00
2018-06-23T19:14:28.815Z,3.80
2018-06-23T19:17:03.538Z,3.90
2018-06-23T19:19:38.092Z,3.90
2018-06-23T19:22:12.725Z,4.10
2018-06-23T19:24:47.273Z,3.83
2018-06-23T19:27:21.888Z,4.20
2018-06-23T19:29:56.457Z,3.83
2018-06-23T19:32:31.803Z,4.00
2018-06-23T19:35:06.542Z,4.50
2018-06-23T19:37:41.013Z,4.43
2018-06-23T19:40:15.774Z,4.23
2018-06-23T19:42:50.225Z,4.50
2018-06-23T19:45:24.748Z,4.30
2018-06-23T19:47:59.505Z,4.37
2018-06-23T19:50:34.136Z,4.63
2018-06-23T19:53:08.636Z,4.87
2018-06-23T19:55:43.283Z,4.70
2018-06-23T19:58:17.855Z,5.00
2018-06-23T20:00:52.369Z,4.93
2018-06-23T20:03:27.042Z,4.83
2018-06-23T20:06:01.861Z,4.90
2018-06-23T20:08:36.361Z,4.47
2018-06-23T20:11:10.960Z,5.47
2018-06-23T20:13:45.522Z,5.37
2018-06-23T20:16:20.314Z,6.13
2018-06-23T20:18:55.660Z,5.87
2018-06-23T20:21:30.457Z,5.80
2018-06-23T20:24:05.144Z,5.90
2018-06-23T20:26:39.654Z,5.77
2018-06-23T20:29:14.108Z,4.73
2018-06-23T20:31:48.364Z,5.60
2018-06-23T20:34:22.718Z,6.53
2018-06-23T20:37:01.399Z,6.20
2018-06-23T20:39:35.927Z,6.27
2018-06-23T20:42:10.276Z,6.20
2018-06-23T20:44:44.748Z,6.10
2018-06-23T20:47:19.411Z,7.00
2018-06-23T20:49:53.815Z,6.70
2018-06-23T20:52:28.349Z,6.37
2018-06-23T20:55:02.957Z,7.60
2018-06-23T20:57:38.292Z,6.40
2018-06-23T21:00:12.932Z,6.20
2018-06-23T21:02:48.656Z,7.63
2018-06-23T21:05:23.628Z,7.57
2018-06-23T21:07:58.118Z,9.27
2018-06-23T21:10:45.511Z,7.40
2018-06-23T21:13:20.072Z,7.37
2018-06-23T21:15:54.568Z,7.37
2018-06-23T21:18:29.156Z,7.10
2018-06-23T21:21:03.851Z,7.10
2018-06-23T21:23:38.420Z,6.07
2018-06-23T21:26:12.818Z,6.60
2018-06-23T21:28:47.264Z,6.67
2018-06-23T21:31:22.420Z,6.30
2018-06-23T21:33:57.036Z,7.40
2018-06-23T21:36:31.500Z,6.43
2018-06-23T21:39:07.383Z,5.73
2018-06-23T21:41:41.853Z,6.20
2018-06-23T21:44:16.180Z,5.23
2018-06-23T21:46:50.471Z,6.40
2018-06-23T21:49:24.896Z,5.37
2018-06-23T21:51:59.320Z,5.17
2018-06-23T21:54:33.571Z,5.57
2018-06-23T21:57:07.951Z,5.53
2018-06-23T21:59:42.387Z,5.37
2018-06-23T22:02:16.802Z,6.10
2018-06-23T22:04:51.228Z,5.07
2018-06-23T22:07:25.612Z,8.03
2018-06-23T22:10:00.033Z,5.63
2018-06-23T22:12:34.392Z,5.83
2018-06-23T22:15:08.956Z,5.37
2018-06-23T22:17:46.965Z,5.73
2018-06-23T22:20:21.387Z,5.37
2018-06-23T22:22:56.567Z,5.60
2018-06-23T22:25:31.118Z,5.57
2018-06-23T22:28:05.706Z,6.40
2018-06-23T22:30:40.223Z,6.57
2018-06-23T22:33:14.695Z,8.07
2018-06-23T22:35:50.195Z,8.43
2018-06-23T22:38:24.725Z,6.67
2018-06-23T22:40:59.907Z,5.53
2018-06-23T22:43:34.310Z,6.20
2018-06-23T22:46:08.672Z,6.97
2018-06-23T22:48:43.131Z,6.00
2018-06-23T22:51:17.831Z,6.30
2018-06-23T22:53:52.216Z,6.43
2018-06-23T22:56:26.777Z,6.43
2018-06-23T22:59:01.348Z,6.33
2018-06-23T23:01:36.138Z,7.93
2018-06-23T23:04:10.689Z,7.30
2018-06-23T23:06:46.505Z,6.60
2018-06-23T23:09:22.092Z,6.67
2018-06-23T23:11:56.585Z,6.53
2018-06-23T23:14:31.106Z,9.40
2018-06-23T23:17:05.729Z,7.03
2018-06-23T23:19:40.360Z,6.10
2018-06-23T23:22:14.864Z,6.93
2018-06-23T23:24:49.461Z,6.40
2018-06-23T23:27:24.093Z,6.97
2018-06-23T23:29:58.544Z,6.93
2018-06-23T23:32:33.170Z,7.23
2018-06-23T23:35:07.677Z,6.83
2018-06-23T23:37:42.513Z,6.70
2018-06-23T23:40:17.616Z,6.67
2018-06-23T23:42:52.304Z,6.83
2018-06-23T23:45:26.810Z,6.47
2018-06-23T23:48:01.568Z,8.07
2018-06-23T23:50:35.936Z,7.07
2018-06-23T23:53:10.383Z,7.70
2018-06-23T23:55:44.967Z,7.30
2018-06-23T23:58:19.524Z,7.57
